sensor_id;sensor_type;location;lat;lon;timestamp;pressure;altitude;pressure_sealevel;temperature;humidity
11808;BME280;5961;42.640;23.380;2024-02-28T00:01:20;94318.97;;;10.18;87.07
11808;BME280;5961;42.640;23.380;2024-02-28T00:03:47;94351.31;;;10.41;86.83
11808;BME280;5961;42.640;23.380;2024-02-28T00:06:15;94364.00;;;10.35;87.38
11808;BME280;5961;42.640;23.380;2024-02-28T00:08:42;94349.66;;;9.99;89.05
11808;BME280;5961;42.640;23.380;2024-02-28T00:11:09;94356.72;;;9.86;90.18
11808;BME280;5961;42.640;23.380;2024-02-28T00:13:35;94358.00;;;9.80;90.54
11808;BME280;5961;42.640;23.380;2024-02-28T00:16:04;94348.84;;;9.69;91.44
11808;BME280;5961;42.640;23.380;2024-02-28T00:18:30;94348.56;;;9.62;92.05
11808;BME280;5961;42.640;23.380;2024-02-28T00:20:57;94361.69;;;9.58;92.75
11808;BME280;5961;42.640;23.380;2024-02-28T00:23:24;94369.34;;;9.60;92.72
11808;BME280;5961;42.640;23.380;2024-02-28T00:25:51;94342.22;;;9.46;93.35
11808;BME280;5961;42.640;23.380;2024-02-28T00:28:18;94365.59;;;9.61;93.34
11808;BME280;5961;42.640;23.380;2024-02-28T00:30:44;94367.28;;;9.65;93.07
11808;BME280;5961;42.640;23.380;2024-02-28T00:33:13;94359.66;;;9.64;93.13
11808;BME280;5961;42.640;23.380;2024-02-28T00:35:39;94352.78;;;9.63;92.73
11808;BME280;5961;42.640;23.380;2024-02-28T00:38:06;94358.38;;;9.61;93.18
11808;BME280;5961;42.640;23.380;2024-02-28T00:40:33;94355.63;;;9.58;93.01
11808;BME280;5961;42.640;23.380;2024-02-28T00:43:00;94353.25;;;9.56;93.40
11808;BME280;5961;42.640;23.380;2024-02-28T00:45:27;94353.41;;;9.60;93.17
11808;BME280;5961;42.640;23.380;2024-02-28T00:47:54;94339.88;;;9.44;93.73
11808;BME280;5961;42.640;23.380;2024-02-28T00:50:23;94351.28;;;9.45;93.87
11808;BME280;5961;42.640;23.380;2024-02-28T00:52:49;94354.53;;;9.50;93.89
11808;BME280;5961;42.640;23.380;2024-02-28T00:55:16;94354.38;;;9.47;93.70
11808;BME280;5961;42.640;23.380;2024-02-28T00:57:44;94352.22;;;9.49;93.76
11808;BME280;5961;42.640;23.380;2024-02-28T01:00:11;94353.75;;;9.50;93.82
11808;BME280;5961;42.640;23.380;2024-02-28T01:02:39;94356.72;;;9.48;94.31
11808;BME280;5961;42.640;23.380;2024-02-28T01:05:07;94356.75;;;9.40;94.65
11808;BME280;5961;42.640;23.380;2024-02-28T01:07:35;94366.09;;;9.37;94.65
11808;BME280;5961;42.640;23.380;2024-02-28T01:10:02;94371.28;;;9.33;95.08
11808;BME280;5961;42.640;23.380;2024-02-28T01:12:29;94361.94;;;9.27;95.97
11808;BME280;5961;42.640;23.380;2024-02-28T01:14:56;94352.09;;;9.19;96.68
11808;BME280;5961;42.640;23.380;2024-02-28T01:17:22;94353.38;;;9.13;96.72
11808;BME280;5961;42.640;23.380;2024-02-28T01:19:49;94365.84;;;9.13;97.45
11808;BME280;5961;42.640;23.380;2024-02-28T01:24:46;94361.97;;;9.02;97.95
11808;BME280;5961;42.640;23.380;2024-02-28T01:27:13;94362.91;;;8.97;98.38
11808;BME280;5961;42.640;23.380;2024-02-28T01:29:39;94371.00;;;8.92;98.44
11808;BME280;5961;42.640;23.380;2024-02-28T01:32:06;94359.19;;;8.81;99.01
11808;BME280;5961;42.640;23.380;2024-02-28T01:34:33;94369.31;;;8.96;98.61
11808;BME280;5961;42.640;23.380;2024-02-28T01:37:00;94366.97;;;9.03;98.28
11808;BME280;5961;42.640;23.380;2024-02-28T01:39:27;94374.75;;;9.08;97.68
11808;BME280;5961;42.640;23.380;2024-02-28T01:41:55;94376.16;;;9.14;97.73
11808;BME280;5961;42.640;23.380;2024-02-28T01:44:22;94376.75;;;9.20;97.38
11808;BME280;5961;42.640;23.380;2024-02-28T01:46:49;94385.94;;;9.22;96.97
11808;BME280;5961;42.640;23.380;2024-02-28T01:49:16;94386.88;;;9.26;96.67
11808;BME280;5961;42.640;23.380;2024-02-28T01:51:44;94380.94;;;9.29;96.26
11808;BME280;5961;42.640;23.380;2024-02-28T01:54:11;94392.03;;;9.23;97.15
11808;BME280;5961;42.640;23.380;2024-02-28T01:56:39;94388.44;;;9.19;96.53
11808;BME280;5961;42.640;23.380;2024-02-28T01:59:10;94385.31;;;9.34;95.52
11808;BME280;5961;42.640;23.380;2024-02-28T02:01:37;94392.81;;;9.23;96.34
11808;BME280;5961;42.640;23.380;2024-02-28T02:04:03;94385.31;;;9.25;96.30
11808;BME280;5961;42.640;23.380;2024-02-28T02:06:30;94394.50;;;9.28;96.71
11808;BME280;5961;42.640;23.380;2024-02-28T02:08:57;94382.81;;;9.37;96.15
11808;BME280;5961;42.640;23.380;2024-02-28T02:11:24;94388.72;;;9.43;95.69
11808;BME280;5961;42.640;23.380;2024-02-28T02:13:52;94388.88;;;9.47;95.33
11808;BME280;5961;42.640;23.380;2024-02-28T02:16:20;94389.19;;;9.45;95.49
11808;BME280;5961;42.640;23.380;2024-02-28T02:18:51;94382.81;;;9.37;95.82
11808;BME280;5961;42.640;23.380;2024-02-28T02:21:19;94378.44;;;9.42;95.88
11808;BME280;5961;42.640;23.380;2024-02-28T02:23:47;94388.09;;;9.46;96.12
11808;BME280;5961;42.640;23.380;2024-02-28T02:26:14;94385.59;;;9.50;95.55
11808;BME280;5961;42.640;23.380;2024-02-28T02:28:41;94389.16;;;9.54;95.14
11808;BME280;5961;42.640;23.380;2024-02-28T02:31:08;94378.56;;;9.54;94.85
11808;BME280;5961;42.640;23.380;2024-02-28T02:33:34;94383.69;;;9.59;94.53
11808;BME280;5961;42.640;23.380;2024-02-28T02:36:01;94368.13;;;9.49;94.82
11808;BME280;5961;42.640;23.380;2024-02-28T02:38:28;94375.28;;;9.57;94.50
11808;BME280;5961;42.640;23.380;2024-02-28T02:40:56;94381.38;;;9.57;94.38
11808;BME280;5961;42.640;23.380;2024-02-28T02:43:22;94375.44;;;9.52;94.40
11808;BME280;5961;42.640;23.380;2024-02-28T02:45:49;94383.56;;;9.47;94.49
11808;BME280;5961;42.640;23.380;2024-02-28T02:48:16;94383.00;;;9.24;95.54
11808;BME280;5961;42.640;23.380;2024-02-28T02:50:42;94382.38;;;9.18;96.12
11808;BME280;5961;42.640;23.380;2024-02-28T02:53:10;94378.97;;;9.09;96.44
11808;BME280;5961;42.640;23.380;2024-02-28T02:55:37;94378.16;;;9.17;96.24
11808;BME280;5961;42.640;23.380;2024-02-28T02:58:05;94377.09;;;9.18;96.46
11808;BME280;5961;42.640;23.380;2024-02-28T03:00:32;94384.41;;;9.21;96.25
11808;BME280;5961;42.640;23.380;2024-02-28T03:02:58;94387.34;;;9.28;95.97
11808;BME280;5961;42.640;23.380;2024-02-28T03:05:25;94382.50;;;9.22;96.13
11808;BME280;5961;42.640;23.380;2024-02-28T03:07:52;94378.63;;;9.19;96.43
11808;BME280;5961;42.640;23.380;2024-02-28T03:10:18;94388.94;;;9.21;96.37
11808;BME280;5961;42.640;23.380;2024-02-28T03:12:45;94377.06;;;9.10;96.76
11808;BME280;5961;42.640;23.380;2024-02-28T03:15:13;94380.03;;;9.08;97.06
11808;BME280;5961;42.640;23.380;2024-02-28T03:17:40;94373.66;;;9.01;97.25
11808;BME280;5961;42.640;23.380;2024-02-28T03:20:08;94375.53;;;9.00;97.49
11808;BME280;5961;42.640;23.380;2024-02-28T03:22:35;94380.03;;;9.08;97.20
11808;BME280;5961;42.640;23.380;2024-02-28T03:25:01;94373.19;;;9.07;96.97
11808;BME280;5961;42.640;23.380;2024-02-28T03:27:28;94377.41;;;9.08;96.84
11808;BME280;5961;42.640;23.380;2024-02-28T03:29:55;94384.75;;;8.94;97.22
11808;BME280;5961;42.640;23.380;2024-02-28T03:32:23;94387.69;;;8.93;97.46
11808;BME280;5961;42.640;23.380;2024-02-28T03:34:50;94390.81;;;9.03;96.96
11808;BME280;5961;42.640;23.380;2024-02-28T03:37:17;94389.72;;;9.04;96.66
11808;BME280;5961;42.640;23.380;2024-02-28T03:39:43;94390.81;;;9.12;96.53
11808;BME280;5961;42.640;23.380;2024-02-28T03:42:10;94397.03;;;9.07;96.33
11808;BME280;5961;42.640;23.380;2024-02-28T03:44:36;94401.56;;;9.15;95.75
11808;BME280;5961;42.640;23.380;2024-02-28T03:47:04;94396.09;;;9.20;95.73
11808;BME280;5961;42.640;23.380;2024-02-28T03:49:32;94394.53;;;9.19;95.66
11808;BME280;5961;42.640;23.380;2024-02-28T03:51:58;94395.66;;;9.18;95.41
11808;BME280;5961;42.640;23.380;2024-02-28T03:54:26;94396.41;;;9.10;95.80
11808;BME280;5961;42.640;23.380;2024-02-28T03:56:53;94361.03;;;8.89;95.98
11808;BME280;5961;42.640;23.380;2024-02-28T03:59:20;94407.19;;;8.97;96.79
11808;BME280;5961;42.640;23.380;2024-02-28T04:01:46;94409.38;;;9.03;96.54
11808;BME280;5961;42.640;23.380;2024-02-28T04:04:13;94401.72;;;8.93;97.70
11808;BME280;5961;42.640;23.380;2024-02-28T04:06:41;94392.22;;;8.83;98.11
11808;BME280;5961;42.640;23.380;2024-02-28T04:09:08;94395.66;;;8.84;98.60
11808;BME280;5961;42.640;23.380;2024-02-28T04:11:36;94393.78;;;8.93;98.59
11808;BME280;5961;42.640;23.380;2024-02-28T04:14:03;94397.97;;;8.86;99.23
11808;BME280;5961;42.640;23.380;2024-02-28T04:16:30;94380.84;;;8.83;99.06
11808;BME280;5961;42.640;23.380;2024-02-28T04:18:56;94380.69;;;8.88;98.72
11808;BME280;5961;42.640;23.380;2024-02-28T04:21:23;94388.16;;;8.86;99.02
11808;BME280;5961;42.640;23.380;2024-02-28T04:23:51;94385.84;;;8.85;99.26
11808;BME280;5961;42.640;23.380;2024-02-28T04:26:18;94384.59;;;8.82;99.21
11808;BME280;5961;42.640;23.380;2024-02-28T04:28:45;94390.34;;;8.84;99.28
11808;BME280;5961;42.640;23.380;2024-02-28T04:31:11;94388.31;;;8.90;98.68
11808;BME280;5961;42.640;23.380;2024-02-28T04:33:38;94384.88;;;8.89;98.58
11808;BME280;5961;42.640;23.380;2024-02-28T04:36:05;94396.56;;;8.71;99.26
11808;BME280;5961;42.640;23.380;2024-02-28T04:38:31;94393.59;;;8.55;99.96
11808;BME280;5961;42.640;23.380;2024-02-28T04:40:59;94383.94;;;8.51;100.00
11808;BME280;5961;42.640;23.380;2024-02-28T04:43:26;94394.69;;;8.46;100.00
11808;BME280;5961;42.640;23.380;2024-02-28T04:45:53;94391.56;;;8.52;100.00
11808;BME280;5961;42.640;23.380;2024-02-28T04:48:19;94409.97;;;8.49;100.00
11808;BME280;5961;42.640;23.380;2024-02-28T04:50:46;94393.91;;;8.45;100.00
11808;BME280;5961;42.640;23.380;2024-02-28T04:53:13;94399.22;;;8.54;99.83
11808;BME280;5961;42.640;23.380;2024-02-28T04:55:39;94391.72;;;8.56;99.33
11808;BME280;5961;42.640;23.380;2024-02-28T04:58:07;94399.22;;;8.62;98.65
11808;BME280;5961;42.640;23.380;2024-02-28T05:00:34;94408.25;;;8.53;98.89
11808;BME280;5961;42.640;23.380;2024-02-28T05:03:01;94404.50;;;8.54;99.08
11808;BME280;5961;42.640;23.380;2024-02-28T05:05:27;94412.00;;;8.52;99.25
11808;BME280;5961;42.640;23.380;2024-02-28T05:07:54;94407.63;;;8.56;98.67
11808;BME280;5961;42.640;23.380;2024-02-28T05:10:21;94390.03;;;8.43;98.23
11808;BME280;5961;42.640;23.380;2024-02-28T05:12:47;94420.06;;;8.47;99.62
11808;BME280;5961;42.640;23.380;2024-02-28T05:15:15;94426.00;;;8.44;99.87
11808;BME280;5961;42.640;23.380;2024-02-28T05:17:42;94417.88;;;8.40;99.74
11808;BME280;5961;42.640;23.380;2024-02-28T05:20:10;94415.81;;;8.28;100.00
11808;BME280;5961;42.640;23.380;2024-02-28T05:22:37;94426.78;;;8.44;99.93
11808;BME280;5961;42.640;23.380;2024-02-28T05:25:06;94428.97;;;8.51;99.78
11808;BME280;5961;42.640;23.380;2024-02-28T05:27:33;94430.22;;;8.53;99.13
11808;BME280;5961;42.640;23.380;2024-02-28T05:30:00;94435.34;;;8.58;99.02
11808;BME280;5961;42.640;23.380;2024-02-28T05:32:32;94433.81;;;8.49;99.28
11808;BME280;5961;42.640;23.380;2024-02-28T05:34:59;94447.06;;;8.49;99.23
11808;BME280;5961;42.640;23.380;2024-02-28T05:37:26;94453.44;;;8.56;99.21
11808;BME280;5961;42.640;23.380;2024-02-28T05:39:53;94459.06;;;8.63;98.88
11808;BME280;5961;42.640;23.380;2024-02-28T05:42:19;94458.13;;;8.68;98.66
11808;BME280;5961;42.640;23.380;2024-02-28T05:44:48;94460.94;;;8.71;98.26
11808;BME280;5961;42.640;23.380;2024-02-28T05:47:14;94469.97;;;8.70;98.26
11808;BME280;5961;42.640;23.380;2024-02-28T05:49:42;94423.66;;;8.42;97.89
11808;BME280;5961;42.640;23.380;2024-02-28T05:52:09;94463.59;;;8.63;97.92
11808;BME280;5961;42.640;23.380;2024-02-28T05:54:36;94465.47;;;8.71;98.03
11808;BME280;5961;42.640;23.380;2024-02-28T05:57:03;94463.94;;;8.70;97.56
11808;BME280;5961;42.640;23.380;2024-02-28T05:59:30;94475.59;;;8.69;97.85
11808;BME280;5961;42.640;23.380;2024-02-28T06:01:56;94478.88;;;8.66;98.03
11808;BME280;5961;42.640;23.380;2024-02-28T06:04:23;94483.72;;;8.81;97.57
11808;BME280;5961;42.640;23.380;2024-02-28T06:06:51;94487.47;;;8.89;96.89
11808;BME280;5961;42.640;23.380;2024-02-28T06:09:18;94485.78;;;8.93;96.47
11808;BME280;5961;42.640;23.380;2024-02-28T06:11:45;94482.81;;;8.94;96.33
11808;BME280;5961;42.640;23.380;2024-02-28T06:14:11;94488.28;;;9.06;96.31
11808;BME280;5961;42.640;23.380;2024-02-28T06:16:38;94484.06;;;9.14;96.26
11808;BME280;5961;42.640;23.380;2024-02-28T06:19:05;94485.16;;;9.04;95.89
11808;BME280;5961;42.640;23.380;2024-02-28T06:21:51;94490.63;;;8.91;97.09
11808;BME280;5961;42.640;23.380;2024-02-28T06:24:18;94497.44;;;8.92;97.43
11808;BME280;5961;42.640;23.380;2024-02-28T06:26:45;94498.09;;;8.97;97.24
11808;BME280;5961;42.640;23.380;2024-02-28T06:29:11;94495.75;;;8.96;97.33
11808;BME280;5961;42.640;23.380;2024-02-28T06:31:38;94503.25;;;9.02;96.99
11808;BME280;5961;42.640;23.380;2024-02-28T06:34:05;94506.19;;;9.01;97.52
11808;BME280;5961;42.640;23.380;2024-02-28T06:36:32;94501.38;;;8.94;97.65
11808;BME280;5961;42.640;23.380;2024-02-28T06:39:00;94503.25;;;9.02;97.50
11808;BME280;5961;42.640;23.380;2024-02-28T06:41:26;94508.25;;;9.12;97.31
11808;BME280;5961;42.640;23.380;2024-02-28T06:43:53;94498.56;;;9.16;97.91
11808;BME280;5961;42.640;23.380;2024-02-28T06:46:20;94506.53;;;9.16;97.75
11808;BME280;5961;42.640;23.380;2024-02-28T06:48:46;94510.47;;;9.27;97.44
11808;BME280;5961;42.640;23.380;2024-02-28T06:51:15;94499.34;;;9.34;97.12
11808;BME280;5961;42.640;23.380;2024-02-28T06:53:42;94501.22;;;9.51;96.80
11808;BME280;5961;42.640;23.380;2024-02-28T06:56:10;94500.28;;;9.64;96.33
11808;BME280;5961;42.640;23.380;2024-02-28T06:58:37;94501.53;;;9.75;95.93
11808;BME280;5961;42.640;23.380;2024-02-28T07:01:04;94498.22;;;9.78;95.16
11808;BME280;5961;42.640;23.380;2024-02-28T07:03:30;94496.97;;;9.84;95.14
11808;BME280;5961;42.640;23.380;2024-02-28T07:05:57;94475.28;;;9.82;94.40
11808;BME280;5961;42.640;23.380;2024-02-28T07:08:24;94497.84;;;10.05;94.18
11808;BME280;5961;42.640;23.380;2024-02-28T07:10:50;94505.19;;;10.17;93.79
11808;BME280;5961;42.640;23.380;2024-02-28T07:13:20;94501.72;;;10.25;94.08
11808;BME280;5961;42.640;23.380;2024-02-28T07:15:47;94493.91;;;10.28;92.74
11808;BME280;5961;42.640;23.380;2024-02-28T07:18:14;94500.88;;;10.41;92.44
11808;BME280;5961;42.640;23.380;2024-02-28T07:20:41;94508.66;;;10.46;92.00
11808;BME280;5961;42.640;23.380;2024-02-28T07:23:07;94506.19;;;10.41;91.91
11808;BME280;5961;42.640;23.380;2024-02-28T07:25:34;94516.16;;;10.53;91.70
11808;BME280;5961;42.640;23.380;2024-02-28T07:28:01;94505.81;;;10.52;91.52
11808;BME280;5961;42.640;23.380;2024-02-28T07:30:30;94512.22;;;10.59;91.32
11808;BME280;5961;42.640;23.380;2024-02-28T07:32:57;94508.47;;;10.60;91.32
11808;BME280;5961;42.640;23.380;2024-02-28T07:35:23;94504.69;;;10.61;91.27
11808;BME280;5961;42.640;23.380;2024-02-28T07:37:50;94512.63;;;10.70;90.60
11808;BME280;5961;42.640;23.380;2024-02-28T07:40:17;94513.09;;;10.72;90.48
11808;BME280;5961;42.640;23.380;2024-02-28T07:42:43;94520.28;;;10.71;90.91
11808;BME280;5961;42.640;23.380;2024-02-28T07:45:10;94519.31;;;10.76;90.18
11808;BME280;5961;42.640;23.380;2024-02-28T07:47:38;94514.63;;;10.81;89.92
11808;BME280;5961;42.640;23.380;2024-02-28T07:50:07;94513.63;;;10.86;90.23
11808;BME280;5961;42.640;23.380;2024-02-28T07:52:34;94517.66;;;10.92;89.89
11808;BME280;5961;42.640;23.380;2024-02-28T07:55:02;94506.19;;;11.00;90.06
11808;BME280;5961;42.640;23.380;2024-02-28T07:57:31;94514.78;;;11.06;89.75
11808;BME280;5961;42.640;23.380;2024-02-28T07:59:58;94503.53;;;11.00;89.56
11808;BME280;5961;42.640;23.380;2024-02-28T08:02:25;94516.31;;;11.07;88.99
11808;BME280;5961;42.640;23.380;2024-02-28T08:04:53;94504.91;;;11.06;89.45
11808;BME280;5961;42.640;23.380;2024-02-28T08:07:19;94521.84;;;11.22;89.02
11808;BME280;5961;42.640;23.380;2024-02-28T08:09:46;94509.63;;;11.30;88.99
11808;BME280;5961;42.640;23.380;2024-02-28T08:12:13;94513.09;;;11.42;88.49
11808;BME280;5961;42.640;23.380;2024-02-28T08:14:39;94501.69;;;11.42;87.44
11808;BME280;5961;42.640;23.380;2024-02-28T08:17:06;94512.50;;;11.57;86.94
11808;BME280;5961;42.640;23.380;2024-02-28T08:19:33;94511.31;;;11.67;86.69
11808;BME280;5961;42.640;23.380;2024-02-28T08:22:01;94505.06;;;11.72;85.76
11808;BME280;5961;42.640;23.380;2024-02-28T08:24:28;94509.31;;;11.85;84.76
11808;BME280;5961;42.640;23.380;2024-02-28T08:26:55;94513.31;;;11.91;84.46
11808;BME280;5961;42.640;23.380;2024-02-28T08:29:22;94520.22;;;11.92;83.92
11808;BME280;5961;42.640;23.380;2024-02-28T08:31:48;94515.34;;;11.94;83.71
11808;BME280;5961;42.640;23.380;2024-02-28T08:34:15;94513.59;;;11.98;83.11
11808;BME280;5961;42.640;23.380;2024-02-28T08:36:43;94523.34;;;12.06;82.31
11808;BME280;5961;42.640;23.380;2024-02-28T08:39:11;94523.84;;;12.08;83.05
11808;BME280;5961;42.640;23.380;2024-02-28T08:41:43;94504.84;;;12.09;83.31
11808;BME280;5961;42.640;23.380;2024-02-28T08:44:11;94503.53;;;12.16;82.59
11808;BME280;5961;42.640;23.380;2024-02-28T08:46:38;94504.31;;;12.16;82.32
11808;BME280;5961;42.640;23.380;2024-02-28T08:49:04;94512.06;;;12.21;81.99
11808;BME280;5961;42.640;23.380;2024-02-28T08:51:31;94510.09;;;12.30;81.66
11808;BME280;5961;42.640;23.380;2024-02-28T08:53:58;94513.44;;;12.39;81.20
11808;BME280;5961;42.640;23.380;2024-02-28T08:56:26;94509.56;;;12.49;80.79
11808;BME280;5961;42.640;23.380;2024-02-28T08:58:53;94502.13;;;12.54;80.93
11808;BME280;5961;42.640;23.380;2024-02-28T09:01:19;94503.47;;;12.60;80.61
11808;BME280;5961;42.640;23.380;2024-02-28T09:03:46;94503.38;;;12.69;80.24
11808;BME280;5961;42.640;23.380;2024-02-28T09:06:14;94506.81;;;12.70;80.56
11808;BME280;5961;42.640;23.380;2024-02-28T09:08:40;94505.81;;;12.74;80.12
11808;BME280;5961;42.640;23.380;2024-02-28T09:11:07;94514.13;;;12.73;79.75
11808;BME280;5961;42.640;23.380;2024-02-28T09:13:35;94520.81;;;12.79;79.36
11808;BME280;5961;42.640;23.380;2024-02-28T09:16:02;94514.81;;;12.82;79.14
11808;BME280;5961;42.640;23.380;2024-02-28T09:18:29;94516.81;;;12.85;78.66
11808;BME280;5961;42.640;23.380;2024-02-28T09:20:56;94518.13;;;12.91;78.41
11808;BME280;5961;42.640;23.380;2024-02-28T09:23:22;94527.16;;;12.86;77.93
11808;BME280;5961;42.640;23.380;2024-02-28T09:25:49;94524.91;;;12.64;78.25
11808;BME280;5961;42.640;23.380;2024-02-28T09:28:16;94515.25;;;12.72;78.31
11808;BME280;5961;42.640;23.380;2024-02-28T09:30:44;94516.03;;;12.72;78.23
11808;BME280;5961;42.640;23.380;2024-02-28T09:33:13;94506.13;;;12.73;78.18
11808;BME280;5961;42.640;23.380;2024-02-28T09:35:39;94507.03;;;12.77;78.42
11808;BME280;5961;42.640;23.380;2024-02-28T09:38:06;94498.78;;;12.82;78.47
11808;BME280;5961;42.640;23.380;2024-02-28T09:40:33;94505.69;;;12.83;78.11
11808;BME280;5961;42.640;23.380;2024-02-28T09:43:01;94497.56;;;12.91;77.83
11808;BME280;5961;42.640;23.380;2024-02-28T09:45:29;94510.00;;;12.99;77.54
11808;BME280;5961;42.640;23.380;2024-02-28T09:47:59;94501.44;;;13.06;76.91
11808;BME280;5961;42.640;23.380;2024-02-28T09:50:26;94503.94;;;13.11;76.92
11808;BME280;5961;42.640;23.380;2024-02-28T09:52:53;94492.25;;;13.15;76.65
11808;BME280;5961;42.640;23.380;2024-02-28T09:55:20;94496.34;;;13.25;76.01
11808;BME280;5961;42.640;23.380;2024-02-28T09:57:48;94503.66;;;13.28;75.46
11808;BME280;5961;42.640;23.380;2024-02-28T10:00:18;94497.09;;;13.38;75.28
11808;BME280;5961;42.640;23.380;2024-02-28T10:02:47;94471.97;;;13.27;75.04
11808;BME280;5961;42.640;23.380;2024-02-28T10:05:15;94490.50;;;13.47;74.68
11808;BME280;5961;42.640;23.380;2024-02-28T10:07:44;94494.72;;;13.48;74.52
11808;BME280;5961;42.640;23.380;2024-02-28T10:10:11;94495.25;;;13.54;72.97
11808;BME280;5961;42.640;23.380;2024-02-28T10:12:40;94494.25;;;13.58;72.44
11808;BME280;5961;42.640;23.380;2024-02-28T10:15:08;94483.75;;;13.65;72.67
11808;BME280;5961;42.640;23.380;2024-02-28T10:17:35;94485.06;;;13.71;72.14
11808;BME280;5961;42.640;23.380;2024-02-28T10:20:03;94478.38;;;13.78;72.53
11808;BME280;5961;42.640;23.380;2024-02-28T10:22:35;94475.44;;;13.83;72.36
11808;BME280;5961;42.640;23.380;2024-02-28T10:25:02;94475.19;;;13.88;71.19
11808;BME280;5961;42.640;23.380;2024-02-28T10:27:32;94474.19;;;13.92;70.44
11808;BME280;5961;42.640;23.380;2024-02-28T10:29:58;94469.34;;;13.98;70.43
11808;BME280;5961;42.640;23.380;2024-02-28T10:32:25;94468.69;;;14.01;70.49
11808;BME280;5961;42.640;23.380;2024-02-28T10:34:53;94461.28;;;14.10;69.73
11808;BME280;5961;42.640;23.380;2024-02-28T10:37:21;94456.44;;;14.15;69.73
11808;BME280;5961;42.640;23.380;2024-02-28T10:39:51;94446.13;;;14.14;69.96
11808;BME280;5961;42.640;23.380;2024-02-28T10:42:19;94448.44;;;14.15;70.00
11808;BME280;5961;42.640;23.380;2024-02-28T10:44:48;94445.50;;;14.20;69.19
11808;BME280;5961;42.640;23.380;2024-02-28T10:47:17;94438.84;;;14.30;69.51
11808;BME280;5961;42.640;23.380;2024-02-28T10:49:44;94445.09;;;14.34;68.54
11808;BME280;5961;42.640;23.380;2024-02-28T10:52:11;94446.72;;;14.39;67.23
11808;BME280;5961;42.640;23.380;2024-02-28T10:54:40;94431.56;;;14.43;66.90
11808;BME280;5961;42.640;23.380;2024-02-28T10:57:09;94430.25;;;14.52;66.49
11808;BME280;5961;42.640;23.380;2024-02-28T10:59:38;94423.34;;;14.51;65.85
11808;BME280;5961;42.640;23.380;2024-02-28T11:02:06;94431.38;;;14.67;65.87
11808;BME280;5961;42.640;23.380;2024-02-28T11:04:33;94430.22;;;14.83;64.42
11808;BME280;5961;42.640;23.380;2024-02-28T11:07:01;94432.78;;;14.96;63.59
11808;BME280;5961;42.640;23.380;2024-02-28T11:09:29;94428.75;;;15.05;62.98
11808;BME280;5961;42.640;23.380;2024-02-28T11:11:57;94416.31;;;15.13;63.09
11808;BME280;5961;42.640;23.380;2024-02-28T11:14:26;94414.56;;;15.20;63.18
11808;BME280;5961;42.640;23.380;2024-02-28T11:17:00;94408.06;;;15.21;62.54
11808;BME280;5961;42.640;23.380;2024-02-28T11:19:28;94410.41;;;15.23;62.36
11808;BME280;5961;42.640;23.380;2024-02-28T11:21:55;94407.38;;;15.24;61.29
11808;BME280;5961;42.640;23.380;2024-02-28T11:24:28;94400.53;;;15.27;61.11
11808;BME280;5961;42.640;23.380;2024-02-28T11:26:56;94404.78;;;15.28;60.67
11808;BME280;5961;42.640;23.380;2024-02-28T11:29:26;94403.66;;;15.29;59.96
11808;BME280;5961;42.640;23.380;2024-02-28T11:31:54;94394.06;;;15.28;60.31
11808;BME280;5961;42.640;23.380;2024-02-28T11:34:21;94390.97;;;15.26;60.00
11808;BME280;5961;42.640;23.380;2024-02-28T11:36:48;94383.44;;;15.31;60.64
11808;BME280;5961;42.640;23.380;2024-02-28T11:39:16;94389.41;;;15.44;59.05
11808;BME280;5961;42.640;23.380;2024-02-28T11:41:42;94382.91;;;15.45;58.60
11808;BME280;5961;42.640;23.380;2024-02-28T11:44:12;94387.25;;;15.50;58.17
11808;BME280;5961;42.640;23.380;2024-02-28T11:46:44;94379.56;;;15.48;57.70
11808;BME280;5961;42.640;23.380;2024-02-28T11:49:11;94374.19;;;15.48;57.81
11808;BME280;5961;42.640;23.380;2024-02-28T11:51:40;94376.44;;;15.46;58.51
11808;BME280;5961;42.640;23.380;2024-02-28T11:54:07;94367.13;;;15.40;58.18
11808;BME280;5961;42.640;23.380;2024-02-28T11:56:34;94370.00;;;15.47;58.20
11808;BME280;5961;42.640;23.380;2024-02-28T11:59:01;94374.06;;;15.41;58.15
11808;BME280;5961;42.640;23.380;2024-02-28T12:01:36;94361.38;;;15.38;57.97
11808;BME280;5961;42.640;23.380;2024-02-28T12:04:05;94323.88;;;15.19;59.80
11808;BME280;5961;42.640;23.380;2024-02-28T12:06:32;94357.28;;;15.44;60.72
11808;BME280;5961;42.640;23.380;2024-02-28T12:09:00;94360.38;;;15.46;60.46
11808;BME280;5961;42.640;23.380;2024-02-28T12:11:27;94351.25;;;15.47;59.64
11808;BME280;5961;42.640;23.380;2024-02-28T12:13:54;94346.78;;;15.55;59.55
11808;BME280;5961;42.640;23.380;2024-02-28T12:16:22;94346.84;;;15.58;59.93
11808;BME280;5961;42.640;23.380;2024-02-28T12:18:49;94346.13;;;15.61;60.55
11808;BME280;5961;42.640;23.380;2024-02-28T12:21:17;94338.50;;;15.63;60.90
11808;BME280;5961;42.640;23.380;2024-02-28T12:23:44;94333.22;;;15.67;61.44
11808;BME280;5961;42.640;23.380;2024-02-28T12:26:11;94325.66;;;15.72;62.01
11808;BME280;5961;42.640;23.380;2024-02-28T12:28:38;94337.31;;;15.83;62.60
11808;BME280;5961;42.640;23.380;2024-02-28T12:31:05;94319.94;;;15.97;63.40
11808;BME280;5961;42.640;23.380;2024-02-28T12:33:34;94328.00;;;16.23;62.02
11808;BME280;5961;42.640;23.380;2024-02-28T12:36:01;94330.91;;;16.37;61.58
11808;BME280;5961;42.640;23.380;2024-02-28T12:38:30;94331.44;;;16.46;61.11
11808;BME280;5961;42.640;23.380;2024-02-28T12:40:57;94329.69;;;16.57;60.62
11808;BME280;5961;42.640;23.380;2024-02-28T12:43:24;94327.84;;;16.61;59.94
11808;BME280;5961;42.640;23.380;2024-02-28T12:45:51;94329.81;;;16.64;59.91
11808;BME280;5961;42.640;23.380;2024-02-28T12:48:18;94326.47;;;16.74;59.40
11808;BME280;5961;42.640;23.380;2024-02-28T12:50:45;94327.81;;;16.87;58.90
11808;BME280;5961;42.640;23.380;2024-02-28T12:53:11;94317.16;;;16.94;58.75
11808;BME280;5961;42.640;23.380;2024-02-28T12:55:40;94324.00;;;17.22;58.11
11808;BME280;5961;42.640;23.380;2024-02-28T12:58:09;94321.13;;;17.37;57.77
11808;BME280;5961;42.640;23.380;2024-02-28T13:00:36;94320.41;;;17.44;56.71
11808;BME280;5961;42.640;23.380;2024-02-28T13:03:03;94312.72;;;17.42;56.24
11808;BME280;5961;42.640;23.380;2024-02-28T13:05:31;94310.00;;;17.39;56.08
11808;BME280;5961;42.640;23.380;2024-02-28T13:07:58;94316.50;;;17.38;55.70